Time;durP1;ratioP1;P1;durP2;ratioP2;P2;SDS_P1;SDS_P2;PMS_P1;PMS_P2;Temp;Humidity;BMP_temperature;BMP_pressure;BME280_temperature;BME280_humidity;BME280_pressure;Samples;Min_cycle;Max_cycle;Signal;HPM_P1;HPM_P2
2022/11/18 00:01:46;;;;;;;10.70;8.00;;;;;;;5.28;100.00;99210.13;105457;1290;60332;-78
2022/11/18 00:04:13;;;;;;;11.40;8.20;;;;;;;5.24;100.00;99211.45;105450;1288;74089;-77
2022/11/18 00:06:39;;;;;;;10.60;7.90;;;;;;;5.21;100.00;99215.71;105620;1293;59121;-77
2022/11/18 00:09:06;;;;;;;11.90;8.80;;;;;;;5.19;100.00;99217.33;105405;1293;59474;-77
2022/11/18 00:14:23;;;;;;;13.00;8.80;;;;;;;5.18;100.00;99224.39;105450;1290;59084;-77
2022/11/18 00:16:56;;;;;;;12.40;9.10;;;;;;;5.19;100.00;99233.06;105464;1294;74883;-77
2022/11/18 00:19:25;;;;;;;12.10;8.10;;;;;;;5.18;100.00;99233.37;105472;1287;69553;-77
2022/11/18 00:21:52;;;;;;;10.10;7.70;;;;;;;5.18;100.00;99231.76;105405;1288;72970;-77
2022/11/18 00:24:19;;;;;;;10.50;8.00;;;;;;;5.16;100.00;99230.26;105494;1293;60740;-78
2022/11/18 00:26:46;;;;;;;10.80;7.40;;;;;;;5.14;100.00;99230.70;105433;1287;60214;-77
2022/11/18 00:29:13;;;;;;;9.10;7.10;;;;;;;5.09;100.00;99229.37;105487;1291;74484;-78
2022/11/18 00:31:40;;;;;;;10.00;7.10;;;;;;;5.07;100.00;99231.12;105472;1290;71013;-77
2022/11/18 00:34:11;;;;;;;9.60;7.30;;;;;;;5.06;100.00;99236.00;105454;1295;72441;-78
2022/11/18 00:36:39;;;;;;;10.70;7.60;;;;;;;5.04;100.00;99237.48;105524;1294;60431;-78
2022/11/18 00:39:06;;;;;;;10.00;7.20;;;;;;;5.02;100.00;99236.40;105371;1288;60343;-78
2022/11/18 00:44:18;;;;;;;12.10;8.20;;;;;;;5.00;100.00;99240.98;105505;1294;69612;-77
2022/11/18 00:46:44;;;;;;;11.80;7.30;;;;;;;5.01;100.00;99241.46;105592;1291;58721;-77
2022/11/18 00:49:11;;;;;;;11.10;8.20;;;;;;;5.01;100.00;99244.42;105499;1290;59277;-78
2022/11/18 00:51:37;;;;;;;10.40;7.30;;;;;;;5.02;100.00;99246.39;105484;1294;59072;-78
2022/11/18 00:54:04;;;;;;;10.90;7.40;;;;;;;5.03;100.00;99247.23;105497;1286;58315;-78
2022/11/18 00:56:31;;;;;;;10.70;7.80;;;;;;;5.03;100.00;99240.50;105506;1287;70884;-78
2022/11/18 00:58:57;;;;;;;10.70;7.50;;;;;;;5.05;100.00;99249.27;105447;1294;71243;-78
2022/11/18 01:01:24;;;;;;;10.60;7.00;;;;;;;5.06;100.00;99248.61;105582;1286;58394;-78
2022/11/18 01:03:52;;;;;;;9.30;6.70;;;;;;;5.04;100.00;99251.11;105458;1294;59049;-78
2022/11/18 01:06:19;;;;;;;11.30;7.40;;;;;;;5.02;100.00;99252.02;105467;1293;74424;-78
2022/11/18 01:08:45;;;;;;;10.20;7.50;;;;;;;5.02;100.00;99250.68;105511;1293;70162;-78
2022/11/18 01:13:56;;;;;;;11.20;8.00;;;;;;;5.03;100.00;99256.98;105585;1293;60949;-78
2022/11/18 01:16:25;;;;;;;12.10;7.70;;;;;;;5.03;100.00;99264.72;105582;1288;59204;-78
2022/11/18 01:18:52;;;;;;;11.00;7.80;;;;;;;5.03;100.00;99267.80;105524;1295;74621;-78
2022/11/18 01:21:19;;;;;;;11.50;8.20;;;;;;;5.04;100.00;99268.51;105609;1295;69747;-78
2022/11/18 01:23:45;;;;;;;14.20;8.20;;;;;;;5.03;100.00;99269.81;105501;1290;71089;-79
2022/11/18 01:26:14;;;;;;;10.90;7.90;;;;;;;5.02;100.00;99270.05;105605;1294;61333;-78
2022/11/18 01:28:40;;;;;;;12.10;7.60;;;;;;;5.02;100.00;99271.30;105394;1291;60139;-78
2022/11/18 01:31:09;;;;;;;10.50;7.30;;;;;;;5.01;100.00;99278.08;105521;1287;72143;-78
2022/11/18 01:33:36;;;;;;;11.30;7.80;;;;;;;4.99;100.00;99282.29;105568;1293;70970;-78
2022/11/18 01:36:03;;;;;;;10.90;7.80;;;;;;;5.00;100.00;99281.40;105484;1294;59127;-78
2022/11/18 01:38:29;;;;;;;10.90;7.60;;;;;;;5.00;100.00;99282.05;105617;1294;61314;-79
2022/11/18 01:40:56;;;;;;;10.80;7.40;;;;;;;5.00;100.00;99282.29;105521;1286;59059;-78
2022/11/18 01:43:23;;;;;;;11.20;7.30;;;;;;;4.99;100.00;99281.14;105574;1295;59013;-78
2022/11/18 01:45:50;;;;;;;12.40;8.10;;;;;;;4.97;100.00;99278.56;105455;1304;71068;-77
2022/11/18 01:48:22;;;;;;;12.30;7.50;;;;;;;4.98;100.00;99273.93;105429;1294;70259;-78
2022/11/18 01:50:59;;;;;;;10.30;6.90;;;;;;;4.98;100.00;99271.42;105438;1295;60948;-78
2022/11/18 01:53:30;;;;;;;9.40;6.70;;;;;;;4.99;100.00;99275.13;105313;1281;59664;-78
2022/11/18 01:56:01;;;;;;;9.80;7.20;;;;;;;5.01;100.00;99272.69;105392;1288;73829;-78
2022/11/18 01:58:37;;;;;;;10.00;6.90;;;;;;;5.01;100.00;99271.24;105528;1293;70848;-78
2022/11/18 02:01:06;;;;;;;10.40;7.10;;;;;;;5.03;100.00;99278.06;105504;1294;71295;-77
2022/11/18 02:03:34;;;;;;;10.00;6.80;;;;;;;5.04;100.00;99280.40;105348;1290;59719;-78
2022/11/18 02:06:03;;;;;;;9.00;6.60;;;;;;;5.06;100.00;99285.80;105427;1288;60381;-78
2022/11/18 02:08:32;;;;;;;10.00;6.20;;;;;;;5.05;100.00;99290.28;105588;1295;74837;-78
2022/11/18 02:10:58;;;;;;;8.60;6.30;;;;;;;5.04;100.00;99296.60;105491;1295;70886;-77
2022/11/18 02:13:25;;;;;;;10.80;6.90;;;;;;;5.03;100.00;99295.54;105501;1287;59039;-78
2022/11/18 02:16:06;;;;;;;11.10;7.60;;;;;;;5.03;100.00;99302.54;105584;1294;59245;-77
2022/11/18 02:18:53;;;;;;;10.80;6.90;;;;;;;5.03;100.00;99304.45;105467;1291;60469;-78
2022/11/18 02:21:45;;;;;;;9.50;6.90;;;;;;;5.01;99.99;99306.14;105495;1294;73003;-78
2022/11/18 02:24:27;;;;;;;9.90;7.00;;;;;;;5.01;100.00;99305.77;105607;1294;69611;-78
2022/11/18 02:27:29;;;;;;;10.80;7.50;;;;;;;5.02;100.00;99307.56;105408;1301;72456;-77
2022/11/18 02:30:03;;;;;;;11.80;7.30;;;;;;;5.00;99.89;99309.32;105498;1287;60614;-78
2022/11/18 02:33:05;;;;;;;9.70;7.10;;;;;;;5.00;99.92;99307.16;105605;1294;59435;-78
2022/11/18 02:35:43;;;;;;;10.00;7.40;;;;;;;4.99;99.90;99307.58;105562;1284;74499;-78
2022/11/18 02:38:26;;;;;;;13.10;7.70;;;;;;;4.98;99.96;99306.60;105429;1295;71370;-77
2022/11/18 02:41:01;;;;;;;9.70;7.00;;;;;;;4.96;99.73;99302.84;105580;1294;73764;-77
2022/11/18 02:43:55;;;;;;;11.90;7.90;;;;;;;4.90;99.71;99302.89;105418;1293;61001;-78
2022/11/18 02:46:32;;;;;;;12.50;8.30;;;;;;;4.85;99.84;99300.14;105454;1297;59842;-78
2022/11/18 02:49:04;;;;;;;12.60;8.20;;;;;;;4.82;99.76;99300.84;105435;1295;73127;-78
2022/11/18 02:51:32;;;;;;;12.10;8.30;;;;;;;4.78;99.79;99303.80;105503;1288;70423;-78
2022/11/18 02:54:05;;;;;;;12.20;8.40;;;;;;;4.74;99.79;99304.89;105508;1294;71502;-77
2022/11/18 02:56:33;;;;;;;14.10;8.60;;;;;;;4.71;99.81;99309.77;105565;1298;61101;-77
2022/11/18 02:59:00;;;;;;;14.30;9.00;;;;;;;4.68;99.76;99308.05;105426;1288;60135;-77
2022/11/18 03:01:29;;;;;;;12.50;9.50;;;;;;;4.65;99.82;99307.35;105475;1295;73136;-77
2022/11/18 03:03:56;;;;;;;15.30;9.60;;;;;;;4.63;99.85;99310.88;105452;1294;72322;-77
2022/11/18 03:06:31;;;;;;;14.70;9.90;;;;;;;4.61;99.89;99313.38;105495;1294;73125;-77
2022/11/18 03:09:03;;;;;;;15.90;10.40;;;;;;;4.59;99.95;99319.59;105431;1294;60033;-77
2022/11/18 03:11:36;;;;;;;15.80;9.40;;;;;;;4.57;99.93;99322.92;105544;1290;59308;-77
2022/11/18 03:14:20;;;;;;;14.90;10.00;;;;;;;4.56;99.93;99329.23;105435;1293;72359;-77
2022/11/18 03:17:02;;;;;;;15.50;10.60;;;;;;;4.51;99.88;99335.88;105453;1297;70882;-77
2022/11/18 03:19:43;;;;;;;16.40;11.00;;;;;;;4.46;99.80;99337.36;105584;1284;70292;-78
2022/11/18 03:22:32;;;;;;;15.20;10.30;;;;;;;4.42;100.00;99340.10;105492;1287;60998;-77
2022/11/18 03:25:09;;;;;;;15.20;10.80;;;;;;;4.40;99.96;99347.06;105538;1286;60404;-78
2022/11/18 03:27:45;;;;;;;16.40;10.30;;;;;;;4.37;100.00;99345.10;105431;1295;74556;-78
2022/11/18 03:30:17;;;;;;;15.80;10.80;;;;;;;4.33;100.00;99342.19;105542;1294;69952;-77
2022/11/18 03:32:50;;;;;;;15.80;11.00;;;;;;;4.31;100.00;99343.98;105414;1293;72414;-77
2022/11/18 03:35:22;;;;;;;16.40;11.30;;;;;;;4.30;100.00;99350.69;105293;1289;59671;-78
2022/11/18 03:37:55;;;;;;;16.60;11.30;;;;;;;4.32;100.00;99353.71;105452;1294;59688;-78
2022/11/18 03:40:28;;;;;;;18.00;11.20;;;;;;;4.32;100.00;99357.71;105474;1293;74441;-78
2022/11/18 03:43:08;;;;;;;16.00;10.70;;;;;;;4.32;100.00;99366.45;105529;1295;71134;-78
2022/11/18 03:45:41;;;;;;;17.60;11.30;;;;;;;4.32;100.00;99372.94;105495;1294;72492;-78
2022/11/18 03:48:15;;;;;;;18.40;11.60;;;;;;;4.29;100.00;99373.42;105425;1294;59016;-78
2022/11/18 03:50:46;;;;;;;18.20;11.40;;;;;;;4.26;100.00;99380.36;105490;1287;60093;-77
2022/11/18 03:53:16;;;;;;;20.20;11.90;;;;;;;4.25;100.00;99385.95;105421;1297;73153;-77
2022/11/18 03:55:48;;;;;;;18.50;11.80;;;;;;;4.26;100.00;99389.16;105360;1293;68862;-78
2022/11/18 03:58:36;;;;;;;19.20;12.30;;;;;;;4.24;100.00;99394.90;105620;1287;71052;-78
2022/11/18 04:01:10;;;;;;;18.10;12.10;;;;;;;4.23;100.00;99396.28;105541;1288;60514;-78
2022/11/18 04:03:36;;;;;;;19.10;12.40;;;;;;;4.21;100.00;99399.15;105469;1295;60119;-78
2022/11/18 04:06:28;;;;;;;22.90;12.70;;;;;;;4.19;100.00;99403.34;105588;1290;73098;-78
2022/11/18 04:08:59;;;;;;;18.20;12.00;;;;;;;4.16;100.00;99411.05;105499;1301;70471;-78
2022/11/18 04:14:19;;;;;;;19.30;11.60;;;;;;;4.12;100.00;99417.95;105466;1294;61256;-78
2022/11/18 04:16:51;;;;;;;17.60;11.20;;;;;;;4.11;100.00;99417.05;105304;1296;59557;-78
2022/11/18 04:19:18;;;;;;;17.30;11.10;;;;;;;4.09;100.00;99420.17;105545;1295;74301;-78
2022/11/18 04:21:47;;;;;;;19.10;12.30;;;;;;;4.09;100.00;99418.80;105528;1284;70927;-78
2022/11/18 04:24:14;;;;;;;20.10;11.50;;;;;;;4.10;100.00;99420.77;105449;1297;73636;-78
2022/11/18 04:26:41;;;;;;;19.80;12.80;;;;;;;4.08;100.00;99418.38;105500;1294;59835;-78
2022/11/18 04:29:07;;;;;;;19.00;11.50;;;;;;;4.06;100.00;99417.36;105586;1295;59227;-78
2022/11/18 04:31:34;;;;;;;20.90;11.70;;;;;;;4.03;100.00;99418.66;105441;1294;73814;-78
2022/11/18 04:34:00;;;;;;;17.60;11.60;;;;;;;4.02;100.00;99417.65;105516;1287;59011;-78
2022/11/18 04:36:26;;;;;;;20.30;12.70;;;;;;;4.01;100.00;99416.53;105574;1294;59362;-78
2022/11/18 04:38:53;;;;;;;19.70;12.10;;;;;;;4.00;100.00;99419.91;105498;1295;60053;-78
2022/11/18 04:41:19;;;;;;;19.90;12.80;;;;;;;3.96;100.00;99421.54;105612;1283;59971;-78
2022/11/18 04:43:46;;;;;;;22.00;13.00;;;;;;;3.93;100.00;99425.70;105436;1295;58944;-78
2022/11/18 04:46:12;;;;;;;19.80;12.30;;;;;;;3.92;100.00;99427.98;105463;1297;59440;-78
2022/11/18 04:48:39;;;;;;;20.50;12.30;;;;;;;3.89;100.00;99430.92;105493;1294;59368;-78
2022/11/18 04:51:05;;;;;;;22.40;13.50;;;;;;;3.86;100.00;99432.73;105439;1294;59113;-78
2022/11/18 04:53:31;;;;;;;22.70;13.30;;;;;;;3.84;100.00;99433.29;105344;1295;59458;-78
2022/11/18 04:56:05;;;;;;;22.10;12.50;;;;;;;3.82;100.00;99434.39;105483;1294;60043;-78
2022/11/18 04:58:32;;;;;;;21.90;12.90;;;;;;;3.81;100.00;99436.06;105535;1294;69782;-78
2022/11/18 05:00:58;;;;;;;22.90;14.20;;;;;;;3.80;100.00;99436.23;105572;1290;72955;-78
2022/11/18 05:03:25;;;;;;;24.80;12.60;;;;;;;3.79;100.00;99436.66;105601;1286;60186;-78
2022/11/18 05:05:51;;;;;;;21.10;13.50;;;;;;;3.76;100.00;99443.41;105431;1294;59039;-78
2022/11/18 05:08:18;;;;;;;22.80;13.60;;;;;;;3.76;100.00;99444.88;105575;1291;60150;-78
2022/11/18 05:10:44;;;;;;;25.10;14.70;;;;;;;3.75;100.00;99447.41;105447;1297;59198;-78
2022/11/18 05:13:11;;;;;;;24.10;13.80;;;;;;;3.74;100.00;99451.92;105517;1293;59467;-77
2022/11/18 05:15:38;;;;;;;21.20;13.20;;;;;;;3.72;100.00;99455.39;105493;1294;60981;-77
2022/11/18 05:18:04;;;;;;;24.90;13.40;;;;;;;3.68;100.00;99453.48;105504;1294;58831;-77
2022/11/18 05:20:31;;;;;;;22.30;13.10;;;;;;;3.68;100.00;99461.36;105611;1292;59126;-77
2022/11/18 05:23:01;;;;;;;22.40;13.30;;;;;;;3.68;100.00;99466.47;105533;1293;69830;-78
2022/11/18 05:25:27;;;;;;;19.80;12.70;;;;;;;3.70;100.00;99470.98;105465;1293;59566;-78
2022/11/18 05:27:54;;;;;;;24.30;14.50;;;;;;;3.72;100.00;99472.61;105555;1290;59689;-77
2022/11/18 05:30:20;;;;;;;23.40;14.20;;;;;;;3.72;100.00;99472.35;105525;1295;59596;-78
2022/11/18 05:32:47;;;;;;;20.90;12.90;;;;;;;3.73;100.00;99474.21;105613;1287;59221;-78
2022/11/18 05:35:13;;;;;;;20.70;12.50;;;;;;;3.72;100.00;99478.32;105609;1291;59821;-78
2022/11/18 05:37:40;;;;;;;20.10;13.10;;;;;;;3.69;100.00;99478.80;105518;1293;59526;-78
2022/11/18 05:40:07;;;;;;;24.20;14.20;;;;;;;3.65;100.00;99478.46;105319;1295;59012;-78
2022/11/18 05:45:19;;;;;;;22.90;13.30;;;;;;;3.61;100.00;99484.02;105488;1295;72103;-78
2022/11/18 05:48:02;;;;;;;24.20;14.50;;;;;;;3.58;100.00;99487.66;105587;1290;70358;-78
2022/11/18 05:50:31;;;;;;;20.20;12.50;;;;;;;3.55;100.00;99489.55;105583;1287;71397;-78
2022/11/18 05:52:57;;;;;;;21.60;12.50;;;;;;;3.52;100.00;99488.61;105470;1301;61159;-78
2022/11/18 05:55:28;;;;;;;23.10;13.80;;;;;;;3.48;100.00;99487.23;105473;1290;59021;-78
2022/11/18 05:57:54;;;;;;;27.40;15.80;;;;;;;3.48;100.00;99492.34;105496;1290;74444;-78
2022/11/18 06:00:21;;;;;;;25.80;15.80;;;;;;;3.49;100.00;99499.23;105485;1297;59384;-78
2022/11/18 06:02:51;;;;;;;25.90;15.00;;;;;;;3.50;100.00;99501.02;105455;1294;70512;-78
2022/11/18 06:05:18;;;;;;;24.30;15.40;;;;;;;3.49;100.00;99504.84;105578;1290;59575;-78
2022/11/18 06:07:45;;;;;;;24.60;15.30;;;;;;;3.46;100.00;99506.46;105502;1289;58783;-78
2022/11/18 06:10:21;;;;;;;27.30;15.60;;;;;;;3.47;100.00;99506.95;105499;1290;73792;-78
2022/11/18 06:12:51;;;;;;;24.30;15.20;;;;;;;3.47;100.00;99513.91;105473;1294;70375;-78
2022/11/18 06:15:23;;;;;;;24.70;14.80;;;;;;;3.47;100.00;99516.27;105464;1297;71575;-78
2022/11/18 06:18:15;;;;;;;24.40;14.40;;;;;;;3.45;100.00;99521.34;105457;1297;59711;-78
2022/11/18 06:20:42;;;;;;;26.00;15.70;;;;;;;3.44;100.00;99524.60;105432;1294;59181;-78
2022/11/18 06:23:08;;;;;;;22.60;13.50;;;;;;;3.40;100.00;99526.17;105554;1291;75873;-77
2022/11/18 06:25:39;;;;;;;24.60;15.30;;;;;;;3.39;100.00;99525.64;105358;1296;60060;-78
2022/11/18 06:28:08;;;;;;;25.50;15.10;;;;;;;3.38;100.00;99534.23;105463;1295;71488;-74
2022/11/18 06:30:35;;;;;;;23.80;15.00;;;;;;;3.40;100.00;99538.05;105256;1298;261208;-74
2022/11/18 06:33:01;;;;;;;21.00;13.90;;;;;;;3.42;100.00;99543.41;105460;1293;59349;-74
2022/11/18 06:35:27;;;;;;;25.60;15.60;;;;;;;3.42;100.00;99542.97;105620;1298;59034;-73
2022/11/18 06:37:54;;;;;;;23.60;14.50;;;;;;;3.40;100.00;99541.20;105586;1294;59464;-73
2022/11/18 06:40:20;;;;;;;24.70;14.20;;;;;;;3.40;100.00;99545.75;105450;1294;59363;-73
2022/11/18 06:45:31;;;;;;;24.60;15.80;;;;;;;3.49;100.00;99546.66;105559;1293;59017;-73
2022/11/18 06:48:02;;;;;;;25.10;15.40;;;;;;;3.49;99.97;99550.62;105624;1294;59381;-73
2022/11/18 06:50:29;;;;;;;24.70;14.90;;;;;;;3.51;99.96;99556.41;105574;1290;70894;-73
2022/11/18 06:52:59;;;;;;;26.10;16.20;;;;;;;3.51;99.93;99557.10;105566;1291;70775;-73
2022/11/18 06:55:25;;;;;;;26.90;16.00;;;;;;;3.52;99.97;99557.70;105460;1295;61095;-73
2022/11/18 06:57:55;;;;;;;26.90;15.90;;;;;;;3.52;99.77;99558.04;105474;1294;59163;-73
2022/11/18 07:00:21;;;;;;;27.40;16.80;;;;;;;3.51;99.64;99566.35;105409;1295;74785;-73
2022/11/18 07:02:47;;;;;;;28.30;16.10;;;;;;;3.50;99.71;99569.09;105586;1294;59404;-73
2022/11/18 07:05:14;;;;;;;28.10;16.90;;;;;;;3.51;99.63;99575.11;105550;1287;59811;-73
2022/11/18 07:07:40;;;;;;;26.60;15.80;;;;;;;3.52;99.52;99577.43;105457;1294;59436;-73
2022/11/18 07:10:08;;;;;;;26.80;16.30;;;;;;;3.51;99.68;99583.24;105577;1295;59374;-73
2022/11/18 07:12:34;;;;;;;30.00;16.00;;;;;;;3.50;99.32;99585.48;105469;1295;73860;-73
2022/11/18 07:15:01;;;;;;;27.10;16.50;;;;;;;3.47;99.32;99592.75;105450;1295;59329;-73
2022/11/18 07:17:29;;;;;;;26.00;16.00;;;;;;;3.48;99.84;99599.48;105470;1295;59386;-73
2022/11/18 07:19:55;;;;;;;26.70;16.00;;;;;;;3.49;99.41;99597.84;105487;1297;59812;-73
2022/11/18 07:22:22;;;;;;;27.40;16.40;;;;;;;3.46;98.98;99601.56;105486;1285;59473;-73
2022/11/18 07:24:48;;;;;;;26.90;16.10;;;;;;;3.44;98.64;99605.84;105632;1287;59139;-74
2022/11/18 07:27:14;;;;;;;28.30;16.80;;;;;;;3.43;98.96;99603.15;105538;1294;59021;-74
2022/11/18 07:29:41;;;;;;;27.30;17.00;;;;;;;3.43;99.02;99609.77;105591;1293;59254;-74
2022/11/18 07:32:07;;;;;;;29.50;16.60;;;;;;;3.42;98.85;99610.90;105564;1290;59276;-74
2022/11/18 07:34:34;;;;;;;27.10;16.10;;;;;;;3.44;99.05;99617.40;105530;1293;59277;-74
2022/11/18 07:37:00;;;;;;;25.50;16.10;;;;;;;3.45;99.01;99616.90;105490;1294;59940;-74
2022/11/18 07:39:26;;;;;;;29.40;17.10;;;;;;;3.44;98.73;99621.58;105553;1293;59623;-74
2022/11/18 07:41:53;;;;;;;24.60;14.60;;;;;;;3.42;98.63;99625.98;105546;1283;59672;-74
2022/11/18 07:44:19;;;;;;;26.10;15.90;;;;;;;3.36;98.54;99628.86;105665;1294;58925;-74
2022/11/18 07:46:46;;;;;;;27.80;16.20;;;;;;;3.32;98.75;99637.45;105382;1294;59376;-73
2022/11/18 07:49:12;;;;;;;27.00;15.80;;;;;;;3.30;98.77;99642.91;105566;1291;58910;-73
2022/11/18 07:51:39;;;;;;;24.50;14.60;;;;;;;3.26;98.87;99644.70;105584;1294;59268;-73
2022/11/18 07:54:10;;;;;;;24.50;15.60;;;;;;;3.24;98.67;99650.64;105625;1290;58958;-73
2022/11/18 07:56:37;;;;;;;26.70;15.40;;;;;;;3.25;98.92;99653.31;105569;1295;59642;-73
2022/11/18 07:59:04;;;;;;;24.90;15.20;;;;;;;3.24;98.91;99657.45;105646;1290;58960;-73
2022/11/18 08:01:31;;;;;;;24.80;15.70;;;;;;;3.20;98.51;99655.27;105515;1293;74955;-73
2022/11/18 08:04:04;;;;;;;25.30;15.10;;;;;;;3.16;98.46;99660.18;105653;1290;70466;-73
2022/11/18 08:06:33;;;;;;;25.20;15.90;;;;;;;3.17;98.76;99660.48;105507;1295;72361;-73
2022/11/18 08:09:00;;;;;;;27.70;17.10;;;;;;;3.15;98.60;99665.65;105530;1291;60510;-73
2022/11/18 08:11:26;;;;;;;29.60;18.10;;;;;;;3.15;98.65;99666.76;105565;1295;60242;-73
2022/11/18 08:13:53;;;;;;;26.10;16.00;;;;;;;3.15;98.42;99671.94;105612;1295;59020;-73
2022/11/18 08:16:21;;;;;;;25.80;16.10;;;;;;;3.15;98.56;99675.48;105532;1295;59097;-73
2022/11/18 08:18:48;;;;;;;25.00;15.60;;;;;;;3.16;98.36;99681.02;105545;1294;71215;-74
2022/11/18 08:21:17;;;;;;;24.10;14.90;;;;;;;3.16;98.41;99686.69;105459;1293;60120;-73
2022/11/18 08:23:51;;;;;;;26.80;15.80;;;;;;;3.15;98.06;99689.63;105434;1300;60195;-73
2022/11/18 08:26:19;;;;;;;24.20;15.20;;;;;;;3.12;97.84;99685.08;105414;1296;73343;-73
2022/11/18 08:28:46;;;;;;;23.80;13.00;;;;;;;3.10;98.02;99690.33;105485;1292;70140;-74
2022/11/18 08:31:17;;;;;;;26.00;15.20;;;;;;;3.06;97.74;99688.92;105519;1294;71371;-73
2022/11/18 08:33:45;;;;;;;24.80;15.70;;;;;;;3.07;97.74;99691.09;105475;1294;59412;-73
2022/11/18 08:36:15;;;;;;;24.60;15.00;;;;;;;3.07;97.80;99695.45;105533;1294;59099;-73
2022/11/18 08:38:41;;;;;;;25.00;15.20;;;;;;;3.06;97.77;99703.11;105573;1293;73206;-73
2022/11/18 08:41:28;;;;;;;26.80;16.30;;;;;;;3.02;97.39;99706.39;105531;1296;71304;-73
2022/11/18 08:43:54;;;;;;;29.50;19.50;;;;;;;3.03;97.84;99709.48;105564;1294;70710;-73
2022/11/18 08:46:21;;;;;;;29.70;19.00;;;;;;;3.04;97.90;99713.25;105575;1287;58841;-73
2022/11/18 08:48:48;;;;;;;31.00;19.80;;;;;;;3.03;97.62;99714.61;105555;1290;59708;-73
2022/11/18 08:51:14;;;;;;;30.90;19.50;;;;;;;3.03;97.46;99718.88;105615;1290;59031;-74
2022/11/18 08:53:41;;;;;;;31.80;20.20;;;;;;;3.05;97.41;99720.14;105540;1295;69582;-74
2022/11/18 08:56:14;;;;;;;32.20;19.90;;;;;;;3.06;97.34;99720.25;105614;1295;71203;-73
2022/11/18 08:58:41;;;;;;;29.30;18.40;;;;;;;3.02;96.80;99721.67;105511;1294;59630;-73
2022/11/18 09:01:08;;;;;;;30.70;19.20;;;;;;;2.96;96.48;99722.42;105608;1284;59281;-73
2022/11/18 09:03:34;;;;;;;32.60;20.30;;;;;;;2.89;96.44;99721.20;105613;1294;73238;-73
2022/11/18 09:06:10;;;;;;;34.10;20.50;;;;;;;2.85;96.35;99725.73;105623;1295;59417;-73
2022/11/18 09:08:37;;;;;;;32.00;19.80;;;;;;;2.84;96.81;99728.05;105460;1293;72454;-73
2022/11/18 09:11:23;;;;;;;31.60;19.60;;;;;;;2.82;96.51;99730.00;105468;1287;59633;-73
2022/11/18 09:13:55;;;;;;;31.10;18.80;;;;;;;2.80;96.56;99735.84;105534;1295;59004;-74
2022/11/18 09:16:41;;;;;;;29.20;19.00;;;;;;;2.76;96.49;99742.10;105503;1293;75521;-74
2022/11/18 09:19:08;;;;;;;31.00;19.20;;;;;;;2.74;96.18;99746.55;105535;1293;69881;-73
2022/11/18 09:21:54;;;;;;;29.90;19.60;;;;;;;2.70;96.21;99755.13;105536;1290;70466;-73
2022/11/18 09:24:20;;;;;;;31.20;20.00;;;;;;;2.68;96.02;99759.48;105586;1292;58977;-73
2022/11/18 09:26:48;;;;;;;28.60;18.10;;;;;;;2.67;96.19;99762.02;105507;1303;59567;-74
2022/11/18 09:29:15;;;;;;;25.70;16.10;;;;;;;2.64;96.16;99759.76;105620;1295;73477;-73
2022/11/18 09:31:41;;;;;;;26.20;16.60;;;;;;;2.58;95.84;99763.73;105478;1298;59408;-74
2022/11/18 09:34:09;;;;;;;24.40;16.20;;;;;;;2.55;96.00;99768.81;105556;1300;59423;-73
2022/11/18 09:36:35;;;;;;;27.50;17.40;;;;;;;2.49;95.74;99776.20;105436;1300;59145;-74
2022/11/18 09:39:02;;;;;;;23.60;15.60;;;;;;;2.49;95.81;99775.67;105596;1293;59453;-73
2022/11/18 09:41:38;;;;;;;22.10;14.70;;;;;;;2.48;95.84;99776.63;105494;1293;73095;-74
2022/11/18 09:44:31;;;;;;;24.20;16.00;;;;;;;2.41;95.46;99783.14;105568;1293;72494;-73
2022/11/18 09:47:28;;;;;;;21.60;14.90;;;;;;;2.37;95.77;99789.88;105564;1294;71122;-73
2022/11/18 09:49:57;;;;;;;24.20;16.30;;;;;;;2.35;95.91;99792.63;105604;1290;61177;-73
2022/11/18 09:53:02;;;;;;;23.50;15.10;;;;;;;2.34;96.16;99792.04;105505;1290;59035;-73
2022/11/18 09:55:30;;;;;;;23.30;15.50;;;;;;;2.33;95.83;99800.33;105524;1293;74717;-74
2022/11/18 09:57:58;;;;;;;21.80;15.20;;;;;;;2.36;96.49;99807.42;105600;1296;71066;-74
2022/11/18 10:00:29;;;;;;;24.30;16.20;;;;;;;2.37;95.98;99812.71;105540;1294;72410;-73
2022/11/18 10:03:06;;;;;;;21.30;15.20;;;;;;;2.40;96.07;99812.06;105482;1300;60993;-74
2022/11/18 10:06:03;;;;;;;21.90;14.10;;;;;;;2.41;95.80;99813.85;105516;1291;59307;-73
2022/11/18 10:08:50;;;;;;;23.00;13.90;;;;;;;2.41;95.83;99817.22;105532;1287;74841;-73
2022/11/18 10:11:19;;;;;;;20.50;14.30;;;;;;;2.38;95.37;99819.08;105603;1300;70351;-74
2022/11/18 10:13:55;;;;;;;21.80;13.60;;;;;;;2.36;95.25;99819.40;105547;1295;71178;-73
2022/11/18 10:16:38;;;;;;;21.10;13.60;;;;;;;2.35;95.23;99825.11;105548;1293;60959;-73
2022/11/18 10:19:30;;;;;;;20.20;14.20;;;;;;;2.32;95.30;99827.02;105591;1294;59612;-73
2022/11/18 10:22:13;;;;;;;21.80;14.30;;;;;;;2.34;95.79;99828.17;105615;1293;73595;-73
2022/11/18 10:24:52;;;;;;;20.20;14.30;;;;;;;2.37;95.57;99828.09;105631;1285;71303;-73
2022/11/18 10:27:19;;;;;;;22.80;15.00;;;;;;;2.41;95.79;99832.59;105466;1294;73880;-73
2022/11/18 10:29:52;;;;;;;22.60;15.50;;;;;;;2.41;95.46;99835.38;105590;1287;59625;-73
2022/11/18 10:32:19;;;;;;;22.30;15.70;;;;;;;2.42;95.00;99841.52;105524;1294;59021;-73
2022/11/18 10:34:51;;;;;;;20.50;13.30;;;;;;;2.44;94.92;99844.84;105630;1290;59359;-73
2022/11/18 10:37:31;;;;;;;20.30;13.40;;;;;;;2.39;94.75;99850.14;105511;1287;69399;-73
2022/11/18 10:40:26;;;;;;;21.00;14.40;;;;;;;2.34;94.28;99850.45;105541;1295;71300;-73
2022/11/18 10:42:53;;;;;;;21.10;14.00;;;;;;;2.35;94.36;99858.45;105388;1295;61274;-73
2022/11/18 10:45:22;;;;;;;22.00;14.90;;;;;;;2.36;94.45;99854.88;105472;1290;59215;-73
2022/11/18 10:48:16;;;;;;;20.00;14.10;;;;;;;2.35;94.23;99857.56;105583;1290;75852;-74
2022/11/18 10:50:49;;;;;;;22.70;15.10;;;;;;;2.34;94.26;99866.00;105456;1295;70024;-74
2022/11/18 10:53:30;;;;;;;22.30;14.30;;;;;;;2.32;93.81;99863.06;105395;1295;71780;-74
2022/11/18 10:56:01;;;;;;;20.10;13.20;;;;;;;2.28;93.93;99868.84;105554;1290;60341;-73
2022/11/18 10:58:30;;;;;;;23.40;15.50;;;;;;;2.21;93.55;99868.40;105549;1301;58889;-73
2022/11/18 11:01:14;;;;;;;20.90;13.90;;;;;;;2.18;93.99;99871.13;105476;1295;75494;-73
2022/11/18 11:03:53;;;;;;;22.20;15.10;;;;;;;2.17;93.72;99870.23;105517;1295;70084;-73
2022/11/18 11:06:25;;;;;;;22.60;15.10;;;;;;;2.13;93.57;99874.59;105505;1294;71123;-74
2022/11/18 11:09:21;;;;;;;21.70;14.70;;;;;;;2.10;93.85;99876.25;105589;1290;58955;-74
2022/11/18 11:11:55;;;;;;;21.60;14.70;;;;;;;2.08;93.73;99880.14;105526;1294;59071;-73
2022/11/18 11:14:40;;;;;;;21.50;14.00;;;;;;;2.04;93.79;99878.90;105538;1294;74496;-74
2022/11/18 11:17:15;;;;;;;20.80;13.60;;;;;;;1.96;93.79;99880.81;105523;1295;71001;-74
2022/11/18 11:19:50;;;;;;;20.90;14.20;;;;;;;1.90;94.00;99879.96;105547;1294;73142;-74
2022/11/18 11:22:18;;;;;;;21.90;14.20;;;;;;;1.88;93.89;99878.40;105508;1294;60801;-74
2022/11/18 11:24:44;;;;;;;21.60;14.30;;;;;;;1.88;94.52;99884.17;105599;1287;59147;-74
2022/11/18 11:27:20;;;;;;;21.70;15.00;;;;;;;1.90;94.59;99889.88;105556;1295;74384;-74
2022/11/18 11:30:23;;;;;;;21.80;14.60;;;;;;;1.95;94.72;99895.08;105617;1290;68685;-74
2022/11/18 11:33:17;;;;;;;24.30;15.50;;;;;;;1.97;94.74;99896.25;105474;1295;71988;-74
2022/11/18 11:36:14;;;;;;;24.60;15.80;;;;;;;1.96;94.19;99895.95;105525;1295;60960;-74
2022/11/18 11:39:24;;;;;;;23.80;16.10;;;;;;;1.94;93.98;99901.92;105603;1295;60050;-74
2022/11/18 11:42:13;;;;;;;24.00;15.80;;;;;;;1.91;93.81;99907.99;105599;1300;72689;-75
2022/11/18 11:44:49;;;;;;;22.80;15.00;;;;;;;1.86;93.59;99909.65;105535;1293;71081;-75
2022/11/18 11:47:46;;;;;;;22.70;14.50;;;;;;;1.83;93.82;99911.84;105618;1294;72077;-74
2022/11/18 11:50:31;;;;;;;21.30;14.30;;;;;;;1.78;93.47;99915.09;105513;1288;59627;-74
2022/11/18 11:53:13;;;;;;;23.40;14.60;;;;;;;1.71;93.34;99916.71;105558;1290;60143;-75
2022/11/18 11:55:58;;;;;;;21.30;15.10;;;;;;;1.66;93.42;99916.64;105527;1293;73146;-75